Randleman, North Carolina
Current Conditions -  °F | °C
As of 12:35 AM on Sunday 26 Oct 2014 (Local Time) from KHBI Reporting Station
Clear Clear  
Wind Chill: 55°   Ceiling: Unl
Heat Index: 55°   Visibility: 10mi
Dew Point: 40°   Wind: 3mph
Humidity: 57%   Direction: 210°SSW
Pressure: 29.93"   Gusts: NA
Location:  35.82°N, 79.8°W
Report Text: KHBI 260435Z AUTO 21003KT 10SM CLR 13/05 A2993 RMK AO2 T01300046
Loading
Personal Weather Stations






























Interactive Weather Map
Tropical Storm Tracking
New forecast layout! Learn more

10-Day Weather Forecast

Advertisements
Track Severe Weather on mobile